sensor_id;sensor_type;location;lat;lon;timestamp;temperature;humidity
67147;DHT22;54061;52.036;5.558;2022-10-16T00:00:34;13.00;99.90
67147;DHT22;54061;52.036;5.558;2022-10-16T00:03:01;13.00;99.90
67147;DHT22;54061;52.036;5.558;2022-10-16T00:05:27;13.00;99.90
67147;DHT22;54061;52.036;5.558;2022-10-16T00:07:53;13.00;99.90
67147;DHT22;54061;52.036;5.558;2022-10-16T00:10:18;13.00;99.90
67147;DHT22;54061;52.036;5.558;2022-10-16T00:12:44;12.90;99.90
67147;DHT22;54061;52.036;5.558;2022-10-16T00:15:09;13.00;99.90
67147;DHT22;54061;52.036;5.558;2022-10-16T00:17:35;13.00;99.90
67147;DHT22;54061;52.036;5.558;2022-10-16T00:20:01;13.00;99.90
67147;DHT22;54061;52.036;5.558;2022-10-16T00:22:26;13.00;99.90
67147;DHT22;54061;52.036;5.558;2022-10-16T00:24:52;13.00;99.90
67147;DHT22;54061;52.036;5.558;2022-10-16T00:27:18;13.00;99.90
67147;DHT22;54061;52.036;5.558;2022-10-16T00:29:43;13.00;99.90
67147;DHT22;54061;52.036;5.558;2022-10-16T00:32:09;12.90;99.90
67147;DHT22;54061;52.036;5.558;2022-10-16T00:34:35;12.90;99.90
67147;DHT22;54061;52.036;5.558;2022-10-16T00:37:00;12.90;99.90
67147;DHT22;54061;52.036;5.558;2022-10-16T00:39:26;13.00;99.90
67147;DHT22;54061;52.036;5.558;2022-10-16T00:41:52;13.00;99.90
67147;DHT22;54061;52.036;5.558;2022-10-16T00:44:56;12.90;99.90
67147;DHT22;54061;52.036;5.558;2022-10-16T00:47:31;13.00;99.90
67147;DHT22;54061;52.036;5.558;2022-10-16T00:50:06;13.00;99.90
67147;DHT22;54061;52.036;5.558;2022-10-16T00:52:33;13.00;99.90
67147;DHT22;54061;52.036;5.558;2022-10-16T00:55:00;13.00;99.90
67147;DHT22;54061;52.036;5.558;2022-10-16T00:57:27;13.00;99.90
67147;DHT22;54061;52.036;5.558;2022-10-16T00:59:56;13.00;99.90
67147;DHT22;54061;52.036;5.558;2022-10-16T01:02:22;13.00;99.90
67147;DHT22;54061;52.036;5.558;2022-10-16T01:04:50;13.00;99.90
67147;DHT22;54061;52.036;5.558;2022-10-16T01:07:40;13.10;99.90
67147;DHT22;54061;52.036;5.558;2022-10-16T01:13:03;13.10;99.90
67147;DHT22;54061;52.036;5.558;2022-10-16T01:15:37;13.10;99.90
67147;DHT22;54061;52.036;5.558;2022-10-16T01:18:18;13.10;99.90
67147;DHT22;54061;52.036;5.558;2022-10-16T01:24:03;13.10;99.90
67147;DHT22;54061;52.036;5.558;2022-10-16T01:31:56;13.10;99.90
67147;DHT22;54061;52.036;5.558;2022-10-16T01:34:32;13.10;99.90
67147;DHT22;54061;52.036;5.558;2022-10-16T01:37:07;13.10;99.90
67147;DHT22;54061;52.036;5.558;2022-10-16T01:39:36;13.10;99.90
67147;DHT22;54061;52.036;5.558;2022-10-16T01:42:19;13.10;99.90
67147;DHT22;54061;52.036;5.558;2022-10-16T01:44:47;13.10;99.90
67147;DHT22;54061;52.036;5.558;2022-10-16T01:47:14;13.10;99.90
67147;DHT22;54061;52.036;5.558;2022-10-16T01:49:41;13.10;99.90
67147;DHT22;54061;52.036;5.558;2022-10-16T01:52:14;13.10;99.90
67147;DHT22;54061;52.036;5.558;2022-10-16T01:54:44;13.10;99.90
67147;DHT22;54061;52.036;5.558;2022-10-16T01:57:14;13.20;99.90
67147;DHT22;54061;52.036;5.558;2022-10-16T01:59:47;13.10;99.90
67147;DHT22;54061;52.036;5.558;2022-10-16T02:02:15;13.10;99.90
67147;DHT22;54061;52.036;5.558;2022-10-16T02:04:48;13.10;99.90
67147;DHT22;54061;52.036;5.558;2022-10-16T02:07:15;13.10;99.90
67147;DHT22;54061;52.036;5.558;2022-10-16T02:09:41;13.10;99.90
67147;DHT22;54061;52.036;5.558;2022-10-16T02:12:27;13.10;99.90
67147;DHT22;54061;52.036;5.558;2022-10-16T02:14:54;13.10;99.90
67147;DHT22;54061;52.036;5.558;2022-10-16T02:17:20;13.10;99.90
67147;DHT22;54061;52.036;5.558;2022-10-16T02:19:48;13.10;99.90
67147;DHT22;54061;52.036;5.558;2022-10-16T02:22:26;13.20;99.90
67147;DHT22;54061;52.036;5.558;2022-10-16T02:25:00;13.10;99.90
67147;DHT22;54061;52.036;5.558;2022-10-16T02:30:27;13.10;99.90
67147;DHT22;54061;52.036;5.558;2022-10-16T02:32:53;13.10;99.90
67147;DHT22;54061;52.036;5.558;2022-10-16T02:35:21;13.10;99.90
67147;DHT22;54061;52.036;5.558;2022-10-16T02:37:49;13.10;99.90
67147;DHT22;54061;52.036;5.558;2022-10-16T02:40:15;13.10;99.90
67147;DHT22;54061;52.036;5.558;2022-10-16T02:42:42;13.00;99.90
67147;DHT22;54061;52.036;5.558;2022-10-16T02:45:08;13.00;99.90
67147;DHT22;54061;52.036;5.558;2022-10-16T02:47:35;13.00;99.90
67147;DHT22;54061;52.036;5.558;2022-10-16T02:50:00;13.00;99.90
67147;DHT22;54061;52.036;5.558;2022-10-16T02:52:26;13.00;99.90
67147;DHT22;54061;52.036;5.558;2022-10-16T02:54:51;13.00;99.90
67147;DHT22;54061;52.036;5.558;2022-10-16T02:57:18;13.00;99.90
67147;DHT22;54061;52.036;5.558;2022-10-16T02:59:44;13.00;99.90
67147;DHT22;54061;52.036;5.558;2022-10-16T03:02:10;13.00;99.90
67147;DHT22;54061;52.036;5.558;2022-10-16T03:04:37;13.00;99.90
67147;DHT22;54061;52.036;5.558;2022-10-16T03:07:03;12.90;99.90
67147;DHT22;54061;52.036;5.558;2022-10-16T03:09:28;12.90;99.90
67147;DHT22;54061;52.036;5.558;2022-10-16T03:11:54;12.90;99.90
67147;DHT22;54061;52.036;5.558;2022-10-16T03:14:19;12.90;99.90
67147;DHT22;54061;52.036;5.558;2022-10-16T03:16:45;12.90;99.90
67147;DHT22;54061;52.036;5.558;2022-10-16T03:19:10;12.90;99.90
67147;DHT22;54061;52.036;5.558;2022-10-16T03:21:36;12.80;99.90
67147;DHT22;54061;52.036;5.558;2022-10-16T03:24:02;12.80;99.90
67147;DHT22;54061;52.036;5.558;2022-10-16T03:26:27;12.80;99.90
67147;DHT22;54061;52.036;5.558;2022-10-16T03:28:53;12.80;99.90
67147;DHT22;54061;52.036;5.558;2022-10-16T03:31:18;12.80;99.90
67147;DHT22;54061;52.036;5.558;2022-10-16T03:33:44;12.80;99.90
67147;DHT22;54061;52.036;5.558;2022-10-16T03:36:09;12.80;99.90
67147;DHT22;54061;52.036;5.558;2022-10-16T03:38:35;12.80;99.90
67147;DHT22;54061;52.036;5.558;2022-10-16T03:41:00;12.80;99.90
67147;DHT22;54061;52.036;5.558;2022-10-16T03:43:26;12.80;99.90
67147;DHT22;54061;52.036;5.558;2022-10-16T03:45:51;12.80;99.90
67147;DHT22;54061;52.036;5.558;2022-10-16T03:48:19;12.70;99.90
67147;DHT22;54061;52.036;5.558;2022-10-16T03:50:44;12.70;99.90
67147;DHT22;54061;52.036;5.558;2022-10-16T03:53:11;12.80;99.90
67147;DHT22;54061;52.036;5.558;2022-10-16T03:55:37;12.80;99.90
67147;DHT22;54061;52.036;5.558;2022-10-16T03:58:02;12.70;99.90
67147;DHT22;54061;52.036;5.558;2022-10-16T04:00:28;12.70;99.90
67147;DHT22;54061;52.036;5.558;2022-10-16T04:02:53;12.70;99.90
67147;DHT22;54061;52.036;5.558;2022-10-16T04:05:19;12.70;99.90
67147;DHT22;54061;52.036;5.558;2022-10-16T04:07:44;12.70;99.90
67147;DHT22;54061;52.036;5.558;2022-10-16T04:10:10;12.70;99.90
67147;DHT22;54061;52.036;5.558;2022-10-16T04:12:36;12.70;99.90
67147;DHT22;54061;52.036;5.558;2022-10-16T04:15:01;12.70;99.90
67147;DHT22;54061;52.036;5.558;2022-10-16T04:17:27;12.70;99.90
67147;DHT22;54061;52.036;5.558;2022-10-16T04:19:53;12.70;99.90
67147;DHT22;54061;52.036;5.558;2022-10-16T04:22:19;12.60;99.90
67147;DHT22;54061;52.036;5.558;2022-10-16T04:24:44;12.60;99.90
67147;DHT22;54061;52.036;5.558;2022-10-16T04:27:10;12.60;99.90
67147;DHT22;54061;52.036;5.558;2022-10-16T04:29:35;12.60;99.90
67147;DHT22;54061;52.036;5.558;2022-10-16T04:32:01;12.60;99.90
67147;DHT22;54061;52.036;5.558;2022-10-16T04:34:26;12.60;99.90
67147;DHT22;54061;52.036;5.558;2022-10-16T04:36:52;12.60;99.90
67147;DHT22;54061;52.036;5.558;2022-10-16T04:39:17;12.60;99.90
67147;DHT22;54061;52.036;5.558;2022-10-16T04:41:43;12.60;99.90
67147;DHT22;54061;52.036;5.558;2022-10-16T04:44:09;12.50;99.90
67147;DHT22;54061;52.036;5.558;2022-10-16T04:46:34;12.50;99.90
67147;DHT22;54061;52.036;5.558;2022-10-16T04:49:00;12.50;99.90
67147;DHT22;54061;52.036;5.558;2022-10-16T04:51:25;12.50;99.90
67147;DHT22;54061;52.036;5.558;2022-10-16T04:53:53;12.50;99.90
67147;DHT22;54061;52.036;5.558;2022-10-16T04:56:18;12.50;99.90
67147;DHT22;54061;52.036;5.558;2022-10-16T04:58:44;12.40;99.90
67147;DHT22;54061;52.036;5.558;2022-10-16T05:01:09;12.40;99.90
67147;DHT22;54061;52.036;5.558;2022-10-16T05:03:35;12.40;99.90
67147;DHT22;54061;52.036;5.558;2022-10-16T05:06:00;12.40;99.90
67147;DHT22;54061;52.036;5.558;2022-10-16T05:08:26;12.40;99.90
67147;DHT22;54061;52.036;5.558;2022-10-16T05:10:51;12.40;99.90
67147;DHT22;54061;52.036;5.558;2022-10-16T05:13:17;12.30;99.90
67147;DHT22;54061;52.036;5.558;2022-10-16T05:15:47;12.30;99.90
67147;DHT22;54061;52.036;5.558;2022-10-16T05:18:12;12.30;99.90
67147;DHT22;54061;52.036;5.558;2022-10-16T05:20:38;12.30;99.90
67147;DHT22;54061;52.036;5.558;2022-10-16T05:23:03;12.30;99.90
67147;DHT22;54061;52.036;5.558;2022-10-16T05:25:29;12.30;99.90
67147;DHT22;54061;52.036;5.558;2022-10-16T05:27:54;12.20;99.90
67147;DHT22;54061;52.036;5.558;2022-10-16T05:30:20;12.20;99.90
67147;DHT22;54061;52.036;5.558;2022-10-16T05:32:49;12.20;99.90
67147;DHT22;54061;52.036;5.558;2022-10-16T05:35:17;12.20;99.90
67147;DHT22;54061;52.036;5.558;2022-10-16T05:37:43;12.20;99.90
67147;DHT22;54061;52.036;5.558;2022-10-16T05:40:09;12.20;99.90
67147;DHT22;54061;52.036;5.558;2022-10-16T05:42:35;12.20;99.90
67147;DHT22;54061;52.036;5.558;2022-10-16T05:45:00;12.20;99.90
67147;DHT22;54061;52.036;5.558;2022-10-16T05:47:26;12.20;99.90
67147;DHT22;54061;52.036;5.558;2022-10-16T05:49:52;12.20;99.90
67147;DHT22;54061;52.036;5.558;2022-10-16T05:52:18;12.20;99.90
67147;DHT22;54061;52.036;5.558;2022-10-16T05:54:44;12.30;99.90
67147;DHT22;54061;52.036;5.558;2022-10-16T05:57:09;12.30;99.90
67147;DHT22;54061;52.036;5.558;2022-10-16T05:59:35;12.20;99.90
67147;DHT22;54061;52.036;5.558;2022-10-16T06:02:00;12.30;99.90
67147;DHT22;54061;52.036;5.558;2022-10-16T06:04:26;12.30;99.90
67147;DHT22;54061;52.036;5.558;2022-10-16T06:06:51;12.30;99.90
67147;DHT22;54061;52.036;5.558;2022-10-16T06:09:17;12.30;99.90
67147;DHT22;54061;52.036;5.558;2022-10-16T06:11:42;12.30;99.90
67147;DHT22;54061;52.036;5.558;2022-10-16T06:14:08;12.40;99.90
67147;DHT22;54061;52.036;5.558;2022-10-16T06:16:36;12.40;99.90
67147;DHT22;54061;52.036;5.558;2022-10-16T06:19:03;12.40;99.90
67147;DHT22;54061;52.036;5.558;2022-10-16T06:21:31;12.40;99.90
67147;DHT22;54061;52.036;5.558;2022-10-16T06:23:57;12.50;99.90
67147;DHT22;54061;52.036;5.558;2022-10-16T06:26:25;12.50;99.90
67147;DHT22;54061;52.036;5.558;2022-10-16T06:28:51;12.50;99.90
67147;DHT22;54061;52.036;5.558;2022-10-16T06:31:17;12.60;99.90
67147;DHT22;54061;52.036;5.558;2022-10-16T06:33:43;12.60;99.90
67147;DHT22;54061;52.036;5.558;2022-10-16T06:36:15;12.60;99.90
67147;DHT22;54061;52.036;5.558;2022-10-16T06:38:42;12.60;99.90
67147;DHT22;54061;52.036;5.558;2022-10-16T06:41:11;12.70;99.90
67147;DHT22;54061;52.036;5.558;2022-10-16T06:43:36;12.70;99.90
67147;DHT22;54061;52.036;5.558;2022-10-16T06:46:03;12.70;99.90
67147;DHT22;54061;52.036;5.558;2022-10-16T06:48:29;12.70;99.90
67147;DHT22;54061;52.036;5.558;2022-10-16T06:51:00;12.70;99.90
67147;DHT22;54061;52.036;5.558;2022-10-16T06:53:28;12.70;99.90
67147;DHT22;54061;52.036;5.558;2022-10-16T06:55:54;12.70;99.90
67147;DHT22;54061;52.036;5.558;2022-10-16T06:58:19;12.70;99.90
67147;DHT22;54061;52.036;5.558;2022-10-16T07:00:46;12.80;99.90
67147;DHT22;54061;52.036;5.558;2022-10-16T07:03:11;12.80;99.90
67147;DHT22;54061;52.036;5.558;2022-10-16T07:05:41;12.80;99.90
67147;DHT22;54061;52.036;5.558;2022-10-16T07:08:07;12.80;99.90
67147;DHT22;54061;52.036;5.558;2022-10-16T07:10:33;12.90;99.90
67147;DHT22;54061;52.036;5.558;2022-10-16T07:12:59;12.90;99.90
67147;DHT22;54061;52.036;5.558;2022-10-16T07:15:25;13.00;99.90
67147;DHT22;54061;52.036;5.558;2022-10-16T07:17:51;13.00;99.90
67147;DHT22;54061;52.036;5.558;2022-10-16T07:20:17;13.00;99.90
67147;DHT22;54061;52.036;5.558;2022-10-16T07:22:43;13.10;99.90
67147;DHT22;54061;52.036;5.558;2022-10-16T07:25:09;13.10;99.90
67147;DHT22;54061;52.036;5.558;2022-10-16T07:27:34;13.20;99.90
67147;DHT22;54061;52.036;5.558;2022-10-16T07:30:00;13.20;99.90
67147;DHT22;54061;52.036;5.558;2022-10-16T07:32:25;13.20;99.90
67147;DHT22;54061;52.036;5.558;2022-10-16T07:34:52;13.20;99.90
67147;DHT22;54061;52.036;5.558;2022-10-16T07:37:17;13.20;99.90
67147;DHT22;54061;52.036;5.558;2022-10-16T07:39:43;13.30;99.90
67147;DHT22;54061;52.036;5.558;2022-10-16T07:42:09;13.40;99.90
67147;DHT22;54061;52.036;5.558;2022-10-16T07:44:34;13.40;99.90
67147;DHT22;54061;52.036;5.558;2022-10-16T07:47:00;13.40;99.90
67147;DHT22;54061;52.036;5.558;2022-10-16T07:49:25;13.40;99.90
67147;DHT22;54061;52.036;5.558;2022-10-16T07:51:51;13.50;99.90
67147;DHT22;54061;52.036;5.558;2022-10-16T07:54:16;13.50;99.90
67147;DHT22;54061;52.036;5.558;2022-10-16T07:56:42;13.50;99.90
67147;DHT22;54061;52.036;5.558;2022-10-16T07:59:07;13.60;99.90
67147;DHT22;54061;52.036;5.558;2022-10-16T08:01:33;13.60;99.90
67147;DHT22;54061;52.036;5.558;2022-10-16T08:03:58;13.60;99.90
67147;DHT22;54061;52.036;5.558;2022-10-16T08:06:24;13.50;99.90
67147;DHT22;54061;52.036;5.558;2022-10-16T08:08:49;13.60;99.90
67147;DHT22;54061;52.036;5.558;2022-10-16T08:11:15;13.60;99.90
67147;DHT22;54061;52.036;5.558;2022-10-16T08:13:41;13.60;99.90
67147;DHT22;54061;52.036;5.558;2022-10-16T08:16:07;13.70;99.90
67147;DHT22;54061;52.036;5.558;2022-10-16T08:18:36;13.80;99.90
67147;DHT22;54061;52.036;5.558;2022-10-16T08:21:02;13.90;99.90
67147;DHT22;54061;52.036;5.558;2022-10-16T08:23:28;14.00;99.90
67147;DHT22;54061;52.036;5.558;2022-10-16T08:25:54;14.10;99.90
67147;DHT22;54061;52.036;5.558;2022-10-16T08:28:20;14.20;99.90
67147;DHT22;54061;52.036;5.558;2022-10-16T08:30:46;14.30;99.90
67147;DHT22;54061;52.036;5.558;2022-10-16T08:33:11;14.40;99.90
67147;DHT22;54061;52.036;5.558;2022-10-16T08:35:37;14.50;99.90
67147;DHT22;54061;52.036;5.558;2022-10-16T08:38:03;14.60;99.90
67147;DHT22;54061;52.036;5.558;2022-10-16T08:40:30;14.80;99.90
67147;DHT22;54061;52.036;5.558;2022-10-16T08:46:50;15.40;99.20
67147;DHT22;54061;52.036;5.558;2022-10-16T08:49:11;15.40;99.90
67147;DHT22;54061;52.036;5.558;2022-10-16T08:51:39;15.30;99.90
67147;DHT22;54061;52.036;5.558;2022-10-16T08:54:53;15.40;99.90
67147;DHT22;54061;52.036;5.558;2022-10-16T08:57:00;15.60;99.90
67147;DHT22;54061;52.036;5.558;2022-10-16T08:59:32;15.90;99.90
67147;DHT22;54061;52.036;5.558;2022-10-16T09:01:57;15.90;99.80
67147;DHT22;54061;52.036;5.558;2022-10-16T09:04:45;16.00;99.90
67147;DHT22;54061;52.036;5.558;2022-10-16T09:07:16;16.30;98.20
67147;DHT22;54061;52.036;5.558;2022-10-16T09:13:11;17.40;99.90
67147;DHT22;54061;52.036;5.558;2022-10-16T09:16:00;17.80;96.10
67147;DHT22;54061;52.036;5.558;2022-10-16T09:23:42;18.30;96.40
67147;DHT22;54061;52.036;5.558;2022-10-16T09:26:12;18.70;99.90
67147;DHT22;54061;52.036;5.558;2022-10-16T09:28:38;18.70;99.20
67147;DHT22;54061;52.036;5.558;2022-10-16T09:31:04;18.70;99.90
67147;DHT22;54061;52.036;5.558;2022-10-16T09:33:34;18.80;99.90
67147;DHT22;54061;52.036;5.558;2022-10-16T09:36:03;19.00;99.90
67147;DHT22;54061;52.036;5.558;2022-10-16T09:38:36;19.20;99.90
67147;DHT22;54061;52.036;5.558;2022-10-16T09:41:12;19.10;99.50
67147;DHT22;54061;52.036;5.558;2022-10-16T09:43:59;19.20;99.90
67147;DHT22;54061;52.036;5.558;2022-10-16T09:46:33;19.80;99.20
67147;DHT22;54061;52.036;5.558;2022-10-16T09:49:01;20.40;99.90
67147;DHT22;54061;52.036;5.558;2022-10-16T09:51:28;20.50;99.90
67147;DHT22;54061;52.036;5.558;2022-10-16T09:54:17;20.30;99.90
67147;DHT22;54061;52.036;5.558;2022-10-16T09:56:41;20.20;99.90
67147;DHT22;54061;52.036;5.558;2022-10-16T09:59:15;20.20;99.90
67147;DHT22;54061;52.036;5.558;2022-10-16T10:01:44;20.70;99.90
67147;DHT22;54061;52.036;5.558;2022-10-16T10:04:11;20.60;99.90
67147;DHT22;54061;52.036;5.558;2022-10-16T10:06:43;19.90;99.90
67147;DHT22;54061;52.036;5.558;2022-10-16T10:09:23;19.80;97.30
67147;DHT22;54061;52.036;5.558;2022-10-16T10:11:56;19.80;90.60
67147;DHT22;54061;52.036;5.558;2022-10-16T10:14:23;19.90;99.90
67147;DHT22;54061;52.036;5.558;2022-10-16T10:16:51;20.20;99.90
67147;DHT22;54061;52.036;5.558;2022-10-16T10:19:22;20.50;99.90
67147;DHT22;54061;52.036;5.558;2022-10-16T10:21:49;20.40;99.90
67147;DHT22;54061;52.036;5.558;2022-10-16T10:24:17;20.80;99.90
67147;DHT22;54061;52.036;5.558;2022-10-16T10:26:57;20.60;99.90
67147;DHT22;54061;52.036;5.558;2022-10-16T10:30:08;19.90;95.50
67147;DHT22;54061;52.036;5.558;2022-10-16T10:32:34;20.20;99.90
67147;DHT22;54061;52.036;5.558;2022-10-16T10:38:00;20.60;92.30
67147;DHT22;54061;52.036;5.558;2022-10-16T10:40:38;19.80;83.80
67147;DHT22;54061;52.036;5.558;2022-10-16T10:45:57;18.80;92.70
67147;DHT22;54061;52.036;5.558;2022-10-16T10:48:46;18.80;99.70
67147;DHT22;54061;52.036;5.558;2022-10-16T10:51:20;18.60;96.50
67147;DHT22;54061;52.036;5.558;2022-10-16T11:02:09;18.80;93.70
67147;DHT22;54061;52.036;5.558;2022-10-16T11:04:41;18.50;96.20
67147;DHT22;54061;52.036;5.558;2022-10-16T11:07:18;18.70;97.40
67147;DHT22;54061;52.036;5.558;2022-10-16T11:09:52;18.80;91.50
67147;DHT22;54061;52.036;5.558;2022-10-16T11:12:44;19.20;96.00
67147;DHT22;54061;52.036;5.558;2022-10-16T11:15:27;19.80;96.00
67147;DHT22;54061;52.036;5.558;2022-10-16T11:18:08;20.10;84.70
67147;DHT22;54061;52.036;5.558;2022-10-16T11:20:40;20.50;95.40
67147;DHT22;54061;52.036;5.558;2022-10-16T11:25:59;20.90;94.20
67147;DHT22;54061;52.036;5.558;2022-10-16T11:28:31;20.40;92.80
67147;DHT22;54061;52.036;5.558;2022-10-16T11:31:16;20.00;89.70
67147;DHT22;54061;52.036;5.558;2022-10-16T11:33:47;19.80;92.40
67147;DHT22;54061;52.036;5.558;2022-10-16T11:39:22;19.80;89.20
67147;DHT22;54061;52.036;5.558;2022-10-16T11:41:52;20.00;91.30
67147;DHT22;54061;52.036;5.558;2022-10-16T11:44:45;19.90;88.00
67147;DHT22;54061;52.036;5.558;2022-10-16T11:53:00;19.00;83.70
67147;DHT22;54061;52.036;5.558;2022-10-16T11:55:31;18.80;80.30
67147;DHT22;54061;52.036;5.558;2022-10-16T11:58:03;18.50;88.00
67147;DHT22;54061;52.036;5.558;2022-10-16T12:01:24;18.50;87.40
67147;DHT22;54061;52.036;5.558;2022-10-16T12:08:49;18.90;83.50
67147;DHT22;54061;52.036;5.558;2022-10-16T12:11:37;19.20;87.80
67147;DHT22;54061;52.036;5.558;2022-10-16T12:14:19;19.20;72.70
67147;DHT22;54061;52.036;5.558;2022-10-16T12:17:22;19.10;70.20
67147;DHT22;54061;52.036;5.558;2022-10-16T12:22:36;19.00;79.40
67147;DHT22;54061;52.036;5.558;2022-10-16T12:25:17;18.90;84.10
67147;DHT22;54061;52.036;5.558;2022-10-16T12:27:44;18.80;83.60
67147;DHT22;54061;52.036;5.558;2022-10-16T12:30:21;18.80;85.10
67147;DHT22;54061;52.036;5.558;2022-10-16T12:32:56;18.90;80.10
67147;DHT22;54061;52.036;5.558;2022-10-16T12:35:26;18.90;81.50
67147;DHT22;54061;52.036;5.558;2022-10-16T12:37:52;19.10;84.40
67147;DHT22;54061;52.036;5.558;2022-10-16T12:40:33;19.30;84.30
67147;DHT22;54061;52.036;5.558;2022-10-16T12:43:10;19.50;77.90
67147;DHT22;54061;52.036;5.558;2022-10-16T12:45:36;19.50;83.40
67147;DHT22;54061;52.036;5.558;2022-10-16T12:48:04;19.50;82.70
67147;DHT22;54061;52.036;5.558;2022-10-16T12:50:43;19.50;82.00
67147;DHT22;54061;52.036;5.558;2022-10-16T12:53:24;19.30;81.90
67147;DHT22;54061;52.036;5.558;2022-10-16T12:56:19;19.30;76.50
67147;DHT22;54061;52.036;5.558;2022-10-16T13:07:21;19.40;81.70
67147;DHT22;54061;52.036;5.558;2022-10-16T13:09:54;19.40;76.60
67147;DHT22;54061;52.036;5.558;2022-10-16T13:12:45;19.40;81.20
67147;DHT22;54061;52.036;5.558;2022-10-16T13:21:25;19.40;71.90
67147;DHT22;54061;52.036;5.558;2022-10-16T13:24:19;19.30;75.30
67147;DHT22;54061;52.036;5.558;2022-10-16T13:27:07;19.30;70.10
67147;DHT22;54061;52.036;5.558;2022-10-16T13:29:34;19.10;74.00
67147;DHT22;54061;52.036;5.558;2022-10-16T13:32:01;19.10;80.20
67147;DHT22;54061;52.036;5.558;2022-10-16T13:34:32;19.00;78.60
67147;DHT22;54061;52.036;5.558;2022-10-16T13:36:58;18.90;79.60
67147;DHT22;54061;52.036;5.558;2022-10-16T13:39:26;19.00;80.20
67147;DHT22;54061;52.036;5.558;2022-10-16T13:42:46;19.00;79.50
67147;DHT22;54061;52.036;5.558;2022-10-16T13:44:54;18.90;75.60
67147;DHT22;54061;52.036;5.558;2022-10-16T13:47:23;18.80;79.70
67147;DHT22;54061;52.036;5.558;2022-10-16T13:50:15;18.80;80.00
67147;DHT22;54061;52.036;5.558;2022-10-16T13:52:41;18.80;76.40
67147;DHT22;54061;52.036;5.558;2022-10-16T13:55:15;18.80;80.20
67147;DHT22;54061;52.036;5.558;2022-10-16T13:57:42;18.80;78.80
67147;DHT22;54061;52.036;5.558;2022-10-16T14:02:44;18.80;78.10
67147;DHT22;54061;52.036;5.558;2022-10-16T14:05:10;18.80;80.90
67147;DHT22;54061;52.036;5.558;2022-10-16T14:07:36;18.80;80.10
67147;DHT22;54061;52.036;5.558;2022-10-16T14:10:07;18.60;80.60
67147;DHT22;54061;52.036;5.558;2022-10-16T14:12:43;18.60;80.70
67147;DHT22;54061;52.036;5.558;2022-10-16T14:15:17;18.60;81.30
67147;DHT22;54061;52.036;5.558;2022-10-16T14:17:44;18.60;79.60
67147;DHT22;54061;52.036;5.558;2022-10-16T14:20:15;18.60;81.50
67147;DHT22;54061;52.036;5.558;2022-10-16T14:22:42;18.60;80.20
67147;DHT22;54061;52.036;5.558;2022-10-16T14:30:53;18.60;78.10
67147;DHT22;54061;52.036;5.558;2022-10-16T14:33:32;18.60;80.40
67147;DHT22;54061;52.036;5.558;2022-10-16T14:36:13;18.60;78.50
67147;DHT22;54061;52.036;5.558;2022-10-16T14:38:41;18.50;77.40
67147;DHT22;54061;52.036;5.558;2022-10-16T14:41:08;18.50;81.40
67147;DHT22;54061;52.036;5.558;2022-10-16T14:43:40;18.40;81.90
67147;DHT22;54061;52.036;5.558;2022-10-16T14:46:17;18.40;81.60
67147;DHT22;54061;52.036;5.558;2022-10-16T14:48:46;18.40;81.30
67147;DHT22;54061;52.036;5.558;2022-10-16T14:51:17;18.40;82.10
67147;DHT22;54061;52.036;5.558;2022-10-16T14:53:44;18.40;82.20
67147;DHT22;54061;52.036;5.558;2022-10-16T14:56:22;18.40;82.40
67147;DHT22;54061;52.036;5.558;2022-10-16T14:58:49;18.30;80.90
67147;DHT22;54061;52.036;5.558;2022-10-16T15:01:15;18.30;82.70
67147;DHT22;54061;52.036;5.558;2022-10-16T15:03:41;18.30;82.40
67147;DHT22;54061;52.036;5.558;2022-10-16T15:06:11;18.20;83.40
67147;DHT22;54061;52.036;5.558;2022-10-16T15:08:37;18.10;82.30
67147;DHT22;54061;52.036;5.558;2022-10-16T15:11:03;18.10;83.30
67147;DHT22;54061;52.036;5.558;2022-10-16T15:13:29;18.10;83.60
67147;DHT22;54061;52.036;5.558;2022-10-16T15:15:54;18.20;83.90
67147;DHT22;54061;52.036;5.558;2022-10-16T15:18:21;18.20;83.90
67147;DHT22;54061;52.036;5.558;2022-10-16T15:20:51;18.20;83.90
67147;DHT22;54061;52.036;5.558;2022-10-16T15:23:19;18.20;83.50
67147;DHT22;54061;52.036;5.558;2022-10-16T15:25:50;18.20;83.70
67147;DHT22;54061;52.036;5.558;2022-10-16T15:28:17;18.20;83.40
67147;DHT22;54061;52.036;5.558;2022-10-16T15:30:44;18.20;84.00
67147;DHT22;54061;52.036;5.558;2022-10-16T15:33:28;18.20;84.00
67147;DHT22;54061;52.036;5.558;2022-10-16T15:35:58;18.10;80.60
67147;DHT22;54061;52.036;5.558;2022-10-16T15:38:24;18.10;84.70
67147;DHT22;54061;52.036;5.558;2022-10-16T15:40:50;18.00;84.30
67147;DHT22;54061;52.036;5.558;2022-10-16T15:43:16;17.90;84.70
67147;DHT22;54061;52.036;5.558;2022-10-16T15:45:41;17.90;85.30
67147;DHT22;54061;52.036;5.558;2022-10-16T15:48:10;17.90;85.40
67147;DHT22;54061;52.036;5.558;2022-10-16T15:50:37;18.00;85.40
67147;DHT22;54061;52.036;5.558;2022-10-16T15:53:03;17.90;85.50
67147;DHT22;54061;52.036;5.558;2022-10-16T15:55:29;17.80;85.90
67147;DHT22;54061;52.036;5.558;2022-10-16T15:57:55;17.80;86.50
67147;DHT22;54061;52.036;5.558;2022-10-16T16:00:22;17.80;86.60
67147;DHT22;54061;52.036;5.558;2022-10-16T16:02:51;17.80;86.80
67147;DHT22;54061;52.036;5.558;2022-10-16T16:05:17;17.70;86.90
67147;DHT22;54061;52.036;5.558;2022-10-16T16:07:43;17.70;87.20
67147;DHT22;54061;52.036;5.558;2022-10-16T16:10:11;17.70;87.40
67147;DHT22;54061;52.036;5.558;2022-10-16T16:12:37;17.70;87.50
67147;DHT22;54061;52.036;5.558;2022-10-16T16:15:04;17.60;87.70
67147;DHT22;54061;52.036;5.558;2022-10-16T16:17:32;17.60;87.80
67147;DHT22;54061;52.036;5.558;2022-10-16T16:19:57;17.60;87.90
67147;DHT22;54061;52.036;5.558;2022-10-16T16:22:23;17.50;88.20
67147;DHT22;54061;52.036;5.558;2022-10-16T16:24:49;17.50;88.40
67147;DHT22;54061;52.036;5.558;2022-10-16T16:27:14;17.40;88.50
67147;DHT22;54061;52.036;5.558;2022-10-16T16:29:40;17.40;88.70
67147;DHT22;54061;52.036;5.558;2022-10-16T16:32:06;17.40;89.00
67147;DHT22;54061;52.036;5.558;2022-10-16T16:34:31;17.30;89.20
67147;DHT22;54061;52.036;5.558;2022-10-16T16:36:57;17.30;89.40
67147;DHT22;54061;52.036;5.558;2022-10-16T16:39:23;17.30;89.50
67147;DHT22;54061;52.036;5.558;2022-10-16T16:41:48;17.20;89.50
67147;DHT22;54061;52.036;5.558;2022-10-16T16:44:15;17.20;89.70
67147;DHT22;54061;52.036;5.558;2022-10-16T16:46:42;17.10;89.90
67147;DHT22;54061;52.036;5.558;2022-10-16T16:49:11;17.10;90.00
67147;DHT22;54061;52.036;5.558;2022-10-16T16:51:37;17.10;90.00
67147;DHT22;54061;52.036;5.558;2022-10-16T16:54:03;17.10;90.20
67147;DHT22;54061;52.036;5.558;2022-10-16T16:56:29;16.90;90.40
67147;DHT22;54061;52.036;5.558;2022-10-16T16:58:56;16.80;90.70
67147;DHT22;54061;52.036;5.558;2022-10-16T17:01:24;16.80;90.80
67147;DHT22;54061;52.036;5.558;2022-10-16T17:03:51;16.80;90.80
67147;DHT22;54061;52.036;5.558;2022-10-16T17:06:19;16.70;90.70